Time;durP1;ratioP1;P1;durP2;ratioP2;P2;SDS_P1;SDS_P2;PMS_P1;PMS_P2;Temp;Humidity;BMP_temperature;BMP_pressure;BME280_temperature;BME280_humidity;BME280_pressure;Samples;Min_cycle;Max_cycle;Signal;HPM_P1;HPM_P2
2022/07/10 00:00:21;;;;;;;2.90;2.60;;;;;;;;;;5068894;28;20203;-78
2022/07/10 00:02:49;;;;;;;3.70;2.20;;;;;;;;;;5060502;28;20222;-78
2022/07/10 00:05:16;;;;;;;2.73;2.10;;;;;;;;;;5082490;28;20744;-78
2022/07/10 00:07:43;;;;;;;2.33;2.13;;;;;;;;;;5064322;28;20215;-78
2022/07/10 00:10:10;;;;;;;3.13;2.17;;;;;;;;;;5073103;28;20227;-78
2022/07/10 00:12:37;;;;;;;3.60;2.30;;;;;;;;;;5061330;28;20277;-78
2022/07/10 00:15:07;;;;;;;3.00;2.60;;;;;;;;;;5078683;28;20278;-77
2022/07/10 00:17:35;;;;;;;2.67;2.47;;;;;;;;;;5081181;28;20303;-78
2022/07/10 00:20:02;;;;;;;2.70;2.30;;;;;;;;;;5073152;28;20670;-78
2022/07/10 00:22:30;;;;;;;2.70;2.00;;;;;;;;;;5079642;28;20257;-78
2022/07/10 00:24:57;;;;;;;3.13;2.40;;;;;;;;;;5079140;28;20199;-78
2022/07/10 00:27:24;;;;;;;3.73;2.10;;;;;;;;;;5080216;28;20656;-80
2022/07/10 00:29:51;;;;;;;2.50;2.30;;;;;;;;;;5078485;28;20199;-78
2022/07/10 00:32:20;;;;;;;2.90;2.27;;;;;;;;;;5084001;28;20187;-79
2022/07/10 00:34:47;;;;;;;2.90;2.20;;;;;;;;;;5072896;28;20231;-78
2022/07/10 00:37:15;;;;;;;2.67;1.90;;;;;;;;;;5067931;28;20651;-77
2022/07/10 00:39:42;;;;;;;2.60;2.40;;;;;;;;;;5073347;28;20289;-77
2022/07/10 00:42:10;;;;;;;3.33;2.60;;;;;;;;;;5061727;28;20253;-78
2022/07/10 00:44:37;;;;;;;2.67;2.47;;;;;;;;;;5070162;28;20705;-77
2022/07/10 00:47:05;;;;;;;3.10;2.57;;;;;;;;;;5060450;28;20234;-77
2022/07/10 00:49:34;;;;;;;3.17;2.30;;;;;;;;;;5069827;28;20701;-77
2022/07/10 00:52:03;;;;;;;2.83;2.50;;;;;;;;;;5073022;28;20306;-77
2022/07/10 00:54:30;;;;;;;2.80;2.20;;;;;;;;;;5068489;28;20252;-77
2022/07/10 00:56:58;;;;;;;2.73;2.27;;;;;;;;;;5061904;28;20265;-77
2022/07/10 00:59:27;;;;;;;3.23;2.23;;;;;;;;;;5057759;28;20675;-77
2022/07/10 01:01:54;;;;;;;2.80;1.93;;;;;;;;;;5068622;28;20250;-77
2022/07/10 01:04:21;;;;;;;3.53;2.03;;;;;;;;;;5053928;28;20298;-78
2022/07/10 01:06:50;;;;;;;2.73;2.33;;;;;;;;;;5067447;28;20238;-77
2022/07/10 01:09:17;;;;;;;2.97;2.30;;;;;;;;;;5070860;28;20690;-77
2022/07/10 01:11:45;;;;;;;2.77;2.33;;;;;;;;;;5068255;28;20199;-77
2022/07/10 01:14:12;;;;;;;3.30;2.03;;;;;;;;;;5060726;28;20223;-77
2022/07/10 01:16:40;;;;;;;3.93;2.30;;;;;;;;;;5063704;28;20238;-77
2022/07/10 01:19:07;;;;;;;3.63;2.10;;;;;;;;;;5061101;28;20227;-77
2022/07/10 01:21:36;;;;;;;2.47;2.27;;;;;;;;;;5067843;28;20311;-77
2022/07/10 01:24:06;;;;;;;2.30;2.10;;;;;;;;;;5057431;28;20283;-77
2022/07/10 01:26:34;;;;;;;2.43;2.10;;;;;;;;;;5063460;28;20195;-77
2022/07/10 01:29:03;;;;;;;2.77;2.10;;;;;;;;;;5065190;28;20623;-77
2022/07/10 01:31:31;;;;;;;2.97;2.50;;;;;;;;;;5063712;28;20631;-78
2022/07/10 01:33:59;;;;;;;2.93;2.60;;;;;;;;;;5063482;28;20226;-77
2022/07/10 01:36:26;;;;;;;3.10;2.40;;;;;;;;;;5057564;28;20231;-78
2022/07/10 01:38:56;;;;;;;2.50;2.30;;;;;;;;;;5060857;28;20230;-77
2022/07/10 01:41:23;;;;;;;3.63;2.07;;;;;;;;;;5064549;28;20249;-77
2022/07/10 01:43:51;;;;;;;3.23;2.40;;;;;;;;;;5062023;28;20229;-77
2022/07/10 01:46:18;;;;;;;3.50;2.50;;;;;;;;;;5063988;28;20233;-77
2022/07/10 01:48:46;;;;;;;2.87;2.00;;;;;;;;;;5060309;28;20641;-77
2022/07/10 01:51:13;;;;;;;2.30;2.07;;;;;;;;;;5068155;28;20649;-77
2022/07/10 01:53:40;;;;;;;2.20;2.00;;;;;;;;;;5065530;28;20280;-77
2022/07/10 01:56:10;;;;;;;3.47;2.27;;;;;;;;;;5060088;28;20278;-77
2022/07/10 01:58:38;;;;;;;2.33;2.13;;;;;;;;;;5061117;28;20302;-77
2022/07/10 02:01:06;;;;;;;3.00;2.50;;;;;;;;;;5073084;28;20231;-77
2022/07/10 02:06:18;;;;;;;2.60;2.17;;;;;;;;;;5062742;28;20198;-77
2022/07/10 02:08:45;;;;;;;2.67;2.13;;;;;;;;;;5063584;28;20677;-77
2022/07/10 02:11:14;;;;;;;3.07;2.30;;;;;;;;;;5061350;28;20199;-77
2022/07/10 02:13:41;;;;;;;4.43;2.40;;;;;;;;;;5060452;28;20207;-77
2022/07/10 02:16:08;;;;;;;3.30;2.50;;;;;;;;;;5065742;28;20231;-77
2022/07/10 02:18:36;;;;;;;3.57;2.40;;;;;;;;;;5061829;28;20238;-77
2022/07/10 02:21:03;;;;;;;3.43;2.53;;;;;;;;;;5070309;28;20203;-77
2022/07/10 02:23:30;;;;;;;2.57;2.37;;;;;;;;;;5059533;28;20220;-77
2022/07/10 02:25:57;;;;;;;3.33;2.60;;;;;;;;;;5063210;28;20222;-77
2022/07/10 02:28:26;;;;;;;2.60;2.40;;;;;;;;;;5059790;28;20199;-77
2022/07/10 02:30:53;;;;;;;2.63;2.43;;;;;;;;;;5063734;28;20707;-77
2022/07/10 02:33:21;;;;;;;2.30;2.10;;;;;;;;;;5067888;28;20626;-77
2022/07/10 02:35:48;;;;;;;2.97;2.10;;;;;;;;;;5063952;28;20222;-77
2022/07/10 02:38:15;;;;;;;3.33;2.73;;;;;;;;;;5059714;28;20238;-77
2022/07/10 02:40:42;;;;;;;3.17;2.40;;;;;;;;;;5066234;28;20211;-77
2022/07/10 02:43:10;;;;;;;2.30;2.10;;;;;;;;;;5058617;28;20665;-77
2022/07/10 02:45:38;;;;;;;2.97;2.30;;;;;;;;;;5060378;28;20235;-77
2022/07/10 02:48:06;;;;;;;2.47;2.27;;;;;;;;;;5064439;28;20227;-77
2022/07/10 02:50:33;;;;;;;2.47;2.03;;;;;;;;;;5064492;28;20316;-77
2022/07/10 02:53:00;;;;;;;2.87;2.30;;;;;;;;;;5064614;28;20870;-77
2022/07/10 02:55:27;;;;;;;2.93;2.40;;;;;;;;;;5071079;28;20209;-77
2022/07/10 02:57:55;;;;;;;2.70;2.50;;;;;;;;;;5066171;28;20231;-77
2022/07/10 03:00:22;;;;;;;2.73;2.30;;;;;;;;;;5066578;28;20314;-77
2022/07/10 03:02:51;;;;;;;3.13;2.37;;;;;;;;;;5065770;28;20255;-77
2022/07/10 03:05:18;;;;;;;2.63;2.00;;;;;;;;;;5063062;28;20261;-77
2022/07/10 03:07:45;;;;;;;2.20;2.00;;;;;;;;;;5065374;28;20234;-77
2022/07/10 03:10:12;;;;;;;2.27;2.07;;;;;;;;;;5072615;28;20736;-77
2022/07/10 03:12:39;;;;;;;2.40;2.10;;;;;;;;;;5058492;28;20245;-77
2022/07/10 03:15:08;;;;;;;2.30;1.77;;;;;;;;;;5063465;28;20242;-77
2022/07/10 03:17:35;;;;;;;1.80;1.70;;;;;;;;;;5064416;28;20253;-77
2022/07/10 03:20:04;;;;;;;2.20;2.00;;;;;;;;;;5064359;28;20230;-77
2022/07/10 03:22:32;;;;;;;2.33;1.50;;;;;;;;;;5063037;28;20670;-77
2022/07/10 03:24:59;;;;;;;3.73;1.80;;;;;;;;;;5070541;28;20278;-76
2022/07/10 03:27:26;;;;;;;4.10;1.43;;;;;;;;;;5062782;28;20230;-77
2022/07/10 03:29:54;;;;;;;2.10;1.50;;;;;;;;;;5070344;28;20290;-77
2022/07/10 03:32:21;;;;;;;1.80;1.60;;;;;;;;;;5066036;28;20671;-77
2022/07/10 03:34:48;;;;;;;2.13;1.43;;;;;;;;;;5067411;28;20258;-77
2022/07/10 03:37:17;;;;;;;2.13;1.93;;;;;;;;;;5064168;28;20227;-77
2022/07/10 03:39:44;;;;;;;2.63;1.50;;;;;;;;;;5066072;28;20728;-77
2022/07/10 03:42:11;;;;;;;1.77;1.30;;;;;;;;;;5065100;28;20323;-77
2022/07/10 03:44:38;;;;;;;1.40;1.27;;;;;;;;;;5075302;28;20248;-77
2022/07/10 03:47:05;;;;;;;1.40;1.30;;;;;;;;;;5069208;28;20233;-77
2022/07/10 03:49:33;;;;;;;2.47;1.40;;;;;;;;;;5062324;28;20232;-77
2022/07/10 03:52:01;;;;;;;1.80;1.37;;;;;;;;;;5061865;28;20239;-77
2022/07/10 03:54:30;;;;;;;1.53;1.43;;;;;;;;;;5062423;28;20195;-77
2022/07/10 03:59:42;;;;;;;2.80;1.50;;;;;;;;;;5069780;28;20193;-77
2022/07/10 04:02:09;;;;;;;2.30;1.47;;;;;;;;;;5065309;28;20219;-77
2022/07/10 04:04:36;;;;;;;1.67;1.53;;;;;;;;;;5062953;28;20256;-77
2022/07/10 04:07:05;;;;;;;3.73;1.63;;;;;;;;;;5065226;28;20234;-77
2022/07/10 04:09:34;;;;;;;2.20;1.30;;;;;;;;;;5063636;28;20210;-77
2022/07/10 04:12:01;;;;;;;1.70;1.57;;;;;;;;;;5073760;28;20722;-77
2022/07/10 04:14:28;;;;;;;1.50;1.40;;;;;;;;;;5071990;28;20222;-77
2022/07/10 04:16:56;;;;;;;2.23;1.40;;;;;;;;;;5059776;28;20231;-77
2022/07/10 04:19:23;;;;;;;1.63;1.53;;;;;;;;;;5067783;28;20281;-77
2022/07/10 04:21:50;;;;;;;2.70;1.50;;;;;;;;;;5063797;28;20206;-77
2022/07/10 04:24:17;;;;;;;2.13;1.60;;;;;;;;;;5065706;28;20222;-76
2022/07/10 04:26:46;;;;;;;1.80;1.57;;;;;;;;;;5063116;28;20282;-77
2022/07/10 04:29:13;;;;;;;2.00;1.60;;;;;;;;;;5061422;28;20287;-76
2022/07/10 04:31:40;;;;;;;2.60;1.50;;;;;;;;;;5064106;28;20236;-77
2022/07/10 04:34:07;;;;;;;2.03;1.60;;;;;;;;;;5064330;28;20223;-77
2022/07/10 04:36:35;;;;;;;3.83;1.43;;;;;;;;;;5061550;28;20227;-78
2022/07/10 04:39:02;;;;;;;3.43;1.67;;;;;;;;;;5063459;28;20239;-77
2022/07/10 04:41:29;;;;;;;2.13;1.40;;;;;;;;;;5064831;28;20258;-77
2022/07/10 04:43:58;;;;;;;2.47;1.77;;;;;;;;;;5062489;28;20307;-77
2022/07/10 04:46:25;;;;;;;1.60;1.30;;;;;;;;;;5064210;28;20227;-76
2022/07/10 04:48:52;;;;;;;1.87;1.47;;;;;;;;;;5060821;28;20231;-77
2022/07/10 04:51:19;;;;;;;2.40;1.40;;;;;;;;;;5061210;28;20224;-77
2022/07/10 04:53:47;;;;;;;3.43;1.40;;;;;;;;;;5061531;28;20287;-77
2022/07/10 04:56:14;;;;;;;1.97;1.43;;;;;;;;;;5063032;28;20702;-77
2022/07/10 04:58:41;;;;;;;1.90;1.40;;;;;;;;;;5077488;28;20249;-77
2022/07/10 05:01:09;;;;;;;3.33;1.40;;;;;;;;;;5062539;28;20274;-77
2022/07/10 05:03:37;;;;;;;1.57;1.30;;;;;;;;;;5058436;28;20251;-77
2022/07/10 05:06:04;;;;;;;2.57;1.50;;;;;;;;;;5077152;28;20245;-77
2022/07/10 05:08:31;;;;;;;2.03;1.40;;;;;;;;;;5069222;28;20235;-77
2022/07/10 05:10:58;;;;;;;2.07;1.40;;;;;;;;;;5073093;28;20226;-77
2022/07/10 05:13:25;;;;;;;3.20;1.20;;;;;;;;;;5059303;28;20234;-77
2022/07/10 05:15:53;;;;;;;2.57;1.23;;;;;;;;;;5063066;28;20222;-77
2022/07/10 05:18:21;;;;;;;2.30;1.53;;;;;;;;;;5062432;28;20230;-77
2022/07/10 05:20:49;;;;;;;1.40;1.10;;;;;;;;;;5058489;28;20234;-77
2022/07/10 05:23:16;;;;;;;2.10;1.37;;;;;;;;;;5063414;28;20621;-77
2022/07/10 05:25:43;;;;;;;1.63;1.33;;;;;;;;;;5067600;28;20194;-77
2022/07/10 05:28:12;;;;;;;1.40;1.30;;;;;;;;;;5068671;28;20231;-77
2022/07/10 05:30:40;;;;;;;2.33;1.40;;;;;;;;;;5062814;28;20196;-77
2022/07/10 05:33:07;;;;;;;1.90;1.30;;;;;;;;;;5060436;28;20242;-77
2022/07/10 05:35:36;;;;;;;1.60;1.13;;;;;;;;;;5061857;28;20235;-77
2022/07/10 05:38:03;;;;;;;2.10;1.13;;;;;;;;;;5068713;28;20286;-77
2022/07/10 05:40:30;;;;;;;1.87;1.30;;;;;;;;;;5062684;28;20255;-77
2022/07/10 05:42:57;;;;;;;1.73;1.20;;;;;;;;;;5060682;28;20261;-77
2022/07/10 05:45:25;;;;;;;1.30;1.02;;;;;;;;;;5065083;28;20670;-77
2022/07/10 05:47:52;;;;;;;2.50;1.08;;;;;;;;;;5061873;28;21332;-77
2022/07/10 05:50:19;;;;;;;2.08;1.13;;;;;;;;;;5065116;28;20265;-77
2022/07/10 05:52:48;;;;;;;1.55;1.13;;;;;;;;;;5062565;28;20310;-77
2022/07/10 05:55:15;;;;;;;2.72;1.20;;;;;;;;;;5064041;28;20234;-78
2022/07/10 05:57:42;;;;;;;2.28;1.00;;;;;;;;;;5063438;28;20642;-77
2022/07/10 06:00:10;;;;;;;1.85;1.13;;;;;;;;;;5060094;28;20233;-77
2022/07/10 06:02:37;;;;;;;1.48;1.00;;;;;;;;;;5068172;28;20286;-77
2022/07/10 06:05:05;;;;;;;2.10;1.10;;;;;;;;;;5062104;28;20718;-77
2022/07/10 06:07:32;;;;;;;2.03;1.00;;;;;;;;;;5073955;28;20221;-78
2022/07/10 06:10:01;;;;;;;3.17;1.33;;;;;;;;;;5062398;28;20731;-78
2022/07/10 06:12:28;;;;;;;2.60;1.20;;;;;;;;;;5064088;28;20194;-78
2022/07/10 06:14:55;;;;;;;7.68;1.50;;;;;;;;;;5066374;28;20283;-78
2022/07/10 06:17:24;;;;;;;2.17;1.00;;;;;;;;;;5060355;28;20249;-78
2022/07/10 06:19:51;;;;;;;1.10;1.00;;;;;;;;;;5060532;28;20286;-78
2022/07/10 06:22:34;;;;;;;3.30;1.27;;;;;;;;;;5067399;28;20290;-78
2022/07/10 06:25:04;;;;;;;2.28;1.42;;;;;;;;;;5058028;28;20593;-78
2022/07/10 06:27:31;;;;;;;3.30;1.00;;;;;;;;;;5066333;28;20249;-78
2022/07/10 06:29:59;;;;;;;2.30;1.08;;;;;;;;;;5064286;28;20231;-78
2022/07/10 06:32:27;;;;;;;1.83;1.20;;;;;;;;;;5064832;28;20199;-78
2022/07/10 06:34:54;;;;;;;1.55;0.90;;;;;;;;;;5063649;28;20188;-78
2022/07/10 06:37:21;;;;;;;1.88;1.10;;;;;;;;;;5064861;28;20231;-78
2022/07/10 06:39:49;;;;;;;1.75;1.08;;;;;;;;;;5067410;28;20230;-78
2022/07/10 06:42:17;;;;;;;2.05;1.20;;;;;;;;;;5072605;28;20654;-78
2022/07/10 06:44:45;;;;;;;1.65;1.00;;;;;;;;;;5062627;28;20310;-78
2022/07/10 06:49:58;;;;;;;2.33;1.30;;;;;;;;;;5060617;28;20237;-78
2022/07/10 06:52:25;;;;;;;1.80;0.90;;;;;;;;;;5065892;28;20262;-78
2022/07/10 06:54:53;;;;;;;1.98;0.90;;;;;;;;;;5063602;28;20187;-78
2022/07/10 06:57:22;;;;;;;1.85;1.20;;;;;;;;;;5063923;28;20282;-78
2022/07/10 06:59:49;;;;;;;1.63;1.00;;;;;;;;;;5063201;28;20231;-78
2022/07/10 07:02:16;;;;;;;2.28;1.00;;;;;;;;;;5068824;28;20227;-78
2022/07/10 07:04:44;;;;;;;2.28;1.08;;;;;;;;;;5067384;28;20306;-78
2022/07/10 07:07:11;;;;;;;1.70;1.00;;;;;;;;;;5066849;28;20199;-78
2022/07/10 07:09:39;;;;;;;1.63;1.05;;;;;;;;;;5065651;28;20231;-78
2022/07/10 07:12:06;;;;;;;1.75;1.05;;;;;;;;;;5058256;28;20224;-78
2022/07/10 07:14:35;;;;;;;1.90;1.00;;;;;;;;;;5063156;28;20230;-78
2022/07/10 07:17:05;;;;;;;1.73;0.93;;;;;;;;;;5063494;28;20289;-78
2022/07/10 07:23:09;;;;;;;2.08;1.00;;;;;;;;;;5066493;28;20678;-78
2022/07/10 07:25:05;;;;;;;3.05;0.93;;;;;;;;;;5059716;28;20268;-78
2022/07/10 07:27:32;;;;;;;1.27;0.90;;;;;;;;;;5063305;28;20200;-79
2022/07/10 07:30:04;;;;;;;2.30;0.90;;;;;;;;;;5063798;28;20277;-78
2022/07/10 07:32:31;;;;;;;2.28;1.00;;;;;;;;;;5062648;28;20202;-78
2022/07/10 07:34:59;;;;;;;2.38;0.88;;;;;;;;;;5063964;28;20248;-78
2022/07/10 07:37:36;;;;;;;2.03;0.80;;;;;;;;;;5058889;28;20744;-77
2022/07/10 07:40:03;;;;;;;1.77;0.80;;;;;;;;;;5059543;28;20225;-77
2022/07/10 07:42:30;;;;;;;2.67;0.98;;;;;;;;;;5070230;28;20224;-77
2022/07/10 07:44:57;;;;;;;6.10;1.00;;;;;;;;;;5062109;28;20224;-78
2022/07/10 07:47:26;;;;;;;1.17;0.98;;;;;;;;;;5071912;28;20654;-77
2022/07/10 07:49:54;;;;;;;1.38;0.90;;;;;;;;;;5077089;28;20231;-77
2022/07/10 07:52:22;;;;;;;1.73;0.98;;;;;;;;;;5065807;28;20314;-77
2022/07/10 07:54:50;;;;;;;2.05;1.00;;;;;;;;;;5065308;28;20597;-77
2022/07/10 07:57:18;;;;;;;2.30;0.80;;;;;;;;;;5063128;28;20199;-77
2022/07/10 07:59:45;;;;;;;2.30;0.93;;;;;;;;;;5063738;28;20214;-77
2022/07/10 08:02:13;;;;;;;0.90;0.90;;;;;;;;;;5060574;28;20282;-77
2022/07/10 08:04:41;;;;;;;1.15;0.90;;;;;;;;;;5064002;28;20270;-77
2022/07/10 08:07:08;;;;;;;1.63;0.90;;;;;;;;;;5066597;28;20278;-77
2022/07/10 08:09:35;;;;;;;2.00;0.98;;;;;;;;;;5066376;28;20252;-77
2022/07/10 08:12:03;;;;;;;2.17;1.00;;;;;;;;;;5061378;28;21020;-75
2022/07/10 08:14:30;;;;;;;1.25;0.70;;;;;;;;;;5062644;28;20223;-75
2022/07/10 08:16:57;;;;;;;1.83;0.93;;;;;;;;;;5061447;28;20200;-77
2022/07/10 08:19:24;;;;;;;2.45;0.80;;;;;;;;;;5060869;28;20250;-77
2022/07/10 08:21:53;;;;;;;1.52;0.80;;;;;;;;;;5067585;28;20906;-77
2022/07/10 08:24:20;;;;;;;1.35;0.80;;;;;;;;;;5063577;28;20224;-78
2022/07/10 08:26:48;;;;;;;1.05;0.80;;;;;;;;;;5070512;28;20199;-76
2022/07/10 08:29:15;;;;;;;1.40;0.93;;;;;;;;;;5059479;28;20234;-76
2022/07/10 08:31:42;;;;;;;1.17;0.90;;;;;;;;;;5062602;28;20260;-78
2022/07/10 08:34:10;;;;;;;1.58;0.80;;;;;;;;;;5071411;28;20256;-78
2022/07/10 08:36:40;;;;;;;2.20;1.00;;;;;;;;;;5083781;28;20256;-78
2022/07/10 08:39:09;;;;;;;1.17;0.90;;;;;;;;;;5064891;28;20663;-78
2022/07/10 08:41:36;;;;;;;2.20;0.85;;;;;;;;;;5058856;28;20226;-78
2022/07/10 08:44:04;;;;;;;1.50;1.00;;;;;;;;;;5067692;28;20310;-77
2022/07/10 08:46:32;;;;;;;1.00;0.90;;;;;;;;;;5074839;28;20290;-79
2022/07/10 08:49:01;;;;;;;1.88;1.05;;;;;;;;;;5070490;28;20203;-79
2022/07/10 08:51:34;;;;;;;1.10;0.90;;;;;;;;;;5053578;28;20315;-79
2022/07/10 08:54:02;;;;;;;1.20;1.10;;;;;;;;;;5055432;28;20203;-79
2022/07/10 08:56:31;;;;;;;2.55;1.00;;;;;;;;;;5064608;28;20195;-79
2022/07/10 08:58:58;;;;;;;1.92;1.10;;;;;;;;;;5072989;28;20285;-79
2022/07/10 09:01:26;;;;;;;1.85;1.00;;;;;;;;;;5053367;28;20234;-79
2022/07/10 09:03:53;;;;;;;2.15;1.05;;;;;;;;;;5058520;28;20307;-80
2022/07/10 09:06:20;;;;;;;1.60;1.00;;;;;;;;;;5068551;28;20218;-78
2022/07/10 09:09:01;;;;;;;1.67;1.00;;;;;;;;;;5071122;28;20662;-79
2022/07/10 09:11:30;;;;;;;1.75;1.20;;;;;;;;;;5056765;28;20227;-77
2022/07/10 09:13:59;;;;;;;1.38;1.13;;;;;;;;;;5066945;28;20202;-78
2022/07/10 09:16:28;;;;;;;1.88;1.17;;;;;;;;;;5086811;28;20218;-77
2022/07/10 09:18:55;;;;;;;1.95;1.17;;;;;;;;;;5072837;28;20244;-78
2022/07/10 09:21:23;;;;;;;1.45;1.05;;;;;;;;;;5064288;28;20282;-77
2022/07/10 09:23:50;;;;;;;1.75;1.10;;;;;;;;;;5070405;28;20298;-77
2022/07/10 09:26:18;;;;;;;2.35;1.15;;;;;;;;;;5068613;28;20668;-78
2022/07/10 09:28:45;;;;;;;1.88;1.10;;;;;;;;;;5061439;28;20211;-77
2022/07/10 09:31:14;;;;;;;2.00;1.40;;;;;;;;;;5068500;28;20202;-77
2022/07/10 09:33:41;;;;;;;2.63;1.13;;;;;;;;;;5065603;28;20230;-78
2022/07/10 09:36:10;;;;;;;1.95;1.30;;;;;;;;;;5043417;28;20615;-78
2022/07/10 09:38:53;;;;;;;5.40;1.20;;;;;;;;;;5060608;28;20285;-78
2022/07/10 09:41:21;;;;;;;1.38;1.20;;;;;;;;;;5068636;28;20253;-78
2022/07/10 09:43:49;;;;;;;1.13;1.02;;;;;;;;;;5056162;28;20269;-79
2022/07/10 09:46:19;;;;;;;2.67;1.20;;;;;;;;;;5063785;28;20281;-79
2022/07/10 09:48:46;;;;;;;1.67;1.25;;;;;;;;;;5056413;28;20199;-77
2022/07/10 09:51:16;;;;;;;1.40;1.30;;;;;;;;;;5058377;28;20262;-78
2022/07/10 09:53:44;;;;;;;3.08;1.10;;;;;;;;;;5060579;28;20573;-77
2022/07/10 09:56:14;;;;;;;1.40;1.13;;;;;;;;;;5061498;28;20631;-78
2022/07/10 09:58:42;;;;;;;2.33;1.20;;;;;;;;;;5068157;28;20199;-79
2022/07/10 10:01:10;;;;;;;1.45;1.10;;;;;;;;;;5066432;28;20630;-78
2022/07/10 10:03:39;;;;;;;2.03;1.27;;;;;;;;;;5068812;28;20576;-78
2022/07/10 10:06:11;;;;;;;1.30;1.08;;;;;;;;;;5071010;28;20200;-78
2022/07/10 10:08:45;;;;;;;1.20;1.10;;;;;;;;;;5067913;28;20229;-79
2022/07/10 10:11:15;;;;;;;1.25;1.10;;;;;;;;;;5071469;28;20203;-78
2022/07/10 10:13:43;;;;;;;3.55;1.10;;;;;;;;;;5066113;28;21280;-78
2022/07/10 10:16:11;;;;;;;1.25;1.15;;;;;;;;;;5072449;28;20191;-78
2022/07/10 10:20:36;;;;;;;2.45;1.48;;;;;;;;;;5072727;28;20230;-78
2022/07/10 10:21:27;;;;;;;2.05;1.17;;;;;;;;;;5072658;28;20215;-78
2022/07/10 10:23:55;;;;;;;1.20;1.10;;;;;;;;;;5070873;28;20202;-77
2022/07/10 10:26:36;;;;;;;1.20;1.10;;;;;;;;;;5068702;28;20237;-78
2022/07/10 10:29:09;;;;;;;1.48;1.20;;;;;;;;;;5072958;28;20201;-78
2022/07/10 10:31:37;;;;;;;1.40;1.27;;;;;;;;;;5071548;28;20227;-78
2022/07/10 10:34:06;;;;;;;1.25;1.15;;;;;;;;;;5066209;28;20191;-78
2022/07/10 10:39:50;;;;;;;2.72;2.45;;;;;;;;;;5069272;28;20225;-78
2022/07/10 10:42:32;;;;;;;1.77;1.67;;;;;;;;;;5070840;28;20207;-78
2022/07/10 10:45:14;;;;;;;1.40;1.25;;;;;;;;;;5071415;28;20230;-78
2022/07/10 10:47:57;;;;;;;1.30;1.20;;;;;;;;;;5066710;28;21021;-78
2022/07/10 10:50:42;;;;;;;1.45;1.35;;;;;;;;;;5070086;28;20235;-78
2022/07/10 10:53:16;;;;;;;1.58;1.40;;;;;;;;;;5028791;28;20226;-77
2022/07/10 10:56:03;;;;;;;1.70;1.27;;;;;;;;;;5032078;28;20229;-78
2022/07/10 10:58:37;;;;;;;2.28;1.70;;;;;;;;;;5030564;28;20204;-78
2022/07/10 11:01:05;;;;;;;2.38;1.30;;;;;;;;;;5029188;28;20231;-78
2022/07/10 11:03:33;;;;;;;2.20;1.80;;;;;;;;;;5029278;28;20952;-78
2022/07/10 11:06:04;;;;;;;1.42;1.33;;;;;;;;;;5025877;28;20224;-77
2022/07/10 11:08:38;;;;;;;2.08;1.50;;;;;;;;;;5028379;28;20204;-77
2022/07/10 11:11:24;;;;;;;1.98;1.50;;;;;;;;;;5021731;28;20676;-78
2022/07/10 11:13:51;;;;;;;7.88;1.63;;;;;;;;;;5027517;28;20224;-78
2022/07/10 11:16:18;;;;;;;1.70;1.30;;;;;;;;;;5032612;28;20242;-78
2022/07/10 11:18:46;;;;;;;1.63;1.50;;;;;;;;;;5024812;28;20239;-77
2022/07/10 11:21:23;;;;;;;1.50;1.40;;;;;;;;;;5031602;28;20653;-77
2022/07/10 11:23:58;;;;;;;2.55;1.27;;;;;;;;;;5029060;28;20200;-77
2022/07/10 11:26:26;;;;;;;1.75;1.30;;;;;;;;;;5030686;28;20888;-77
2022/07/10 11:28:53;;;;;;;2.15;1.25;;;;;;;;;;5031318;28;20243;-77
2022/07/10 11:31:21;;;;;;;1.63;1.40;;;;;;;;;;5032977;28;20219;-77
2022/07/10 11:33:51;;;;;;;2.40;1.40;;;;;;;;;;5031768;28;20244;-77
2022/07/10 11:36:21;;;;;;;2.33;1.30;;;;;;;;;;5031576;28;20196;-77
2022/07/10 11:38:49;;;;;;;1.30;1.20;;;;;;;;;;5031545;28;20205;-77
2022/07/10 11:41:17;;;;;;;4.45;1.30;;;;;;;;;;5032841;28;20293;-76
2022/07/10 11:43:48;;;;;;;3.33;1.58;;;;;;;;;;5032863;28;20204;-77
2022/07/10 11:46:16;;;;;;;2.42;1.30;;;;;;;;;;5031155;28;20378;-77
2022/07/10 11:48:43;;;;;;;1.48;1.23;;;;;;;;;;5030959;28;20209;-78
2022/07/10 11:51:25;;;;;;;3.30;1.40;;;;;;;;;;5041083;28;20745;-78
2022/07/10 11:54:00;;;;;;;1.35;1.25;;;;;;;;;;5070273;28;20586;-78
2022/07/10 11:56:28;;;;;;;1.70;1.30;;;;;;;;;;5071922;28;20718;-78
2022/07/10 11:58:59;;;;;;;1.75;1.30;;;;;;;;;;5072686;28;20250;-77
2022/07/10 12:01:28;;;;;;;1.98;1.27;;;;;;;;;;5062538;28;20294;-77
2022/07/10 12:03:58;;;;;;;1.73;1.23;;;;;;;;;;5063425;28;20237;-78
2022/07/10 12:06:27;;;;;;;1.90;1.30;;;;;;;;;;5068408;28;20230;-78
2022/07/10 12:08:54;;;;;;;3.63;2.42;;;;;;;;;;5069652;28;20207;-78
2022/07/10 12:11:22;;;;;;;2.33;1.38;;;;;;;;;;5070863;28;20742;-78
2022/07/10 12:13:50;;;;;;;2.50;1.40;;;;;;;;;;5070873;28;20249;-78
2022/07/10 12:16:17;;;;;;;1.42;1.33;;;;;;;;;;5070687;28;20191;-79
2022/07/10 12:18:46;;;;;;;2.42;1.60;;;;;;;;;;5075812;28;20425;-78
2022/07/10 12:21:14;;;;;;;8.75;7.95;;;;;;;;;;5069279;28;20197;-79
2022/07/10 12:23:43;;;;;;;2.35;2.15;;;;;;;;;;5066582;28;20211;-78
2022/07/10 12:26:11;;;;;;;1.33;1.17;;;;;;;;;;5062060;28;20223;-78
2022/07/10 12:28:53;;;;;;;1.52;1.40;;;;;;;;;;5067072;28;20318;-78
2022/07/10 12:31:25;;;;;;;2.30;1.50;;;;;;;;;;5068443;28;20198;-78
2022/07/10 12:33:54;;;;;;;2.00;1.30;;;;;;;;;;5069878;28;20203;-78
2022/07/10 12:36:21;;;;;;;1.40;1.30;;;;;;;;;;5068245;28;20227;-78
2022/07/10 12:38:58;;;;;;;7.50;6.90;;;;;;;;;;5066679;28;20231;-78
2022/07/10 12:41:27;;;;;;;1.20;1.10;;;;;;;;;;5069855;28;20207;-78
2022/07/10 12:43:55;;;;;;;3.20;1.30;;;;;;;;;;5065571;28;20257;-78
2022/07/10 12:46:23;;;;;;;1.48;1.20;;;;;;;;;;5065600;28;20634;-78
2022/07/10 12:49:03;;;;;;;1.30;1.20;;;;;;;;;;5068709;28;20191;-78
2022/07/10 12:51:32;;;;;;;1.83;1.42;;;;;;;;;;5061635;28;20242;-78
2022/07/10 12:54:01;;;;;;;1.38;1.15;;;;;;;;;;5063436;28;20223;-78
2022/07/10 12:56:32;;;;;;;1.50;1.40;;;;;;;;;;5064398;28;20199;-78
2022/07/10 12:59:00;;;;;;;1.15;1.05;;;;;;;;;;5068706;28;20198;-78
2022/07/10 13:01:29;;;;;;;2.97;1.20;;;;;;;;;;5067889;28;20211;-78
2022/07/10 13:04:03;;;;;;;1.73;1.40;;;;;;;;;;5068219;28;20289;-78
2022/07/10 13:06:31;;;;;;;2.65;1.30;;;;;;;;;;5064365;28;20222;-78
2022/07/10 13:08:58;;;;;;;1.20;1.10;;;;;;;;;;5066790;28;20232;-77
2022/07/10 13:11:27;;;;;;;2.30;1.17;;;;;;;;;;5067121;28;20242;-78
2022/07/10 13:13:55;;;;;;;1.10;1.00;;;;;;;;;;5066721;28;20203;-78
2022/07/10 13:16:24;;;;;;;1.88;1.10;;;;;;;;;;5066011;28;20200;-78
2022/07/10 13:18:51;;;;;;;1.27;1.10;;;;;;;;;;5063995;28;20203;-78
2022/07/10 13:21:18;;;;;;;1.98;1.20;;;;;;;;;;5062875;28;20282;-78
2022/07/10 13:23:48;;;;;;;3.10;1.20;;;;;;;;;;5064346;28;20289;-78
2022/07/10 13:26:15;;;;;;;2.50;1.25;;;;;;;;;;5067662;28;20219;-78
2022/07/10 13:28:43;;;;;;;2.38;1.40;;;;;;;;;;5065907;28;20744;-78
2022/07/10 13:31:12;;;;;;;1.20;1.10;;;;;;;;;;5066681;28;20230;-78
2022/07/10 13:33:40;;;;;;;1.45;1.10;;;;;;;;;;5065778;28;20207;-78
2022/07/10 13:36:07;;;;;;;1.77;1.50;;;;;;;;;;5068450;28;20187;-78
2022/07/10 13:38:36;;;;;;;1.30;1.10;;;;;;;;;;5069204;28;20211;-78
2022/07/10 13:41:04;;;;;;;1.20;1.10;;;;;;;;;;5063246;28;20289;-78
2022/07/10 13:43:31;;;;;;;1.20;0.98;;;;;;;;;;5067183;28;20211;-78
2022/07/10 13:45:59;;;;;;;1.33;1.10;;;;;;;;;;5063193;28;20280;-78
2022/07/10 13:48:30;;;;;;;1.63;1.00;;;;;;;;;;5064425;28;20204;-77
2022/07/10 13:50:58;;;;;;;1.30;1.20;;;;;;;;;;5063822;28;20231;-78
2022/07/10 13:53:26;;;;;;;1.20;1.10;;;;;;;;;;5066840;28;20751;-78
2022/07/10 13:55:56;;;;;;;1.20;1.00;;;;;;;;;;5065166;28;20203;-78
2022/07/10 13:58:24;;;;;;;1.23;0.93;;;;;;;;;;5066382;28;20204;-78
2022/07/10 14:00:51;;;;;;;1.85;1.20;;;;;;;;;;5067639;28;20677;-78
2022/07/10 14:03:18;;;;;;;1.05;0.90;;;;;;;;;;5067262;28;20199;-78
2022/07/10 14:05:47;;;;;;;1.10;0.93;;;;;;;;;;5070374;28;20748;-78
2022/07/10 14:08:14;;;;;;;0.85;0.85;;;;;;;;;;5068960;28;20657;-77
2022/07/10 14:10:42;;;;;;;1.20;1.00;;;;;;;;;;5067496;28;20203;-78
2022/07/10 14:13:09;;;;;;;2.28;1.35;;;;;;;;;;5065739;28;20202;-78
2022/07/10 14:15:37;;;;;;;1.75;1.00;;;;;;;;;;5064781;28;20198;-78
2022/07/10 14:18:04;;;;;;;2.70;1.00;;;;;;;;;;5066929;28;20195;-78
2022/07/10 14:21:02;;;;;;;2.13;1.00;;;;;;;;;;5067495;28;20264;-78
2022/07/10 14:23:22;;;;;;;1.10;1.00;;;;;;;;;;5063317;28;20646;-78
2022/07/10 14:25:49;;;;;;;1.27;1.10;;;;;;;;;;5066292;28;20231;-78
2022/07/10 14:28:16;;;;;;;1.90;0.98;;;;;;;;;;5068091;28;20282;-78
2022/07/10 14:30:44;;;;;;;1.30;1.10;;;;;;;;;;5068382;28;20242;-78
2022/07/10 14:33:11;;;;;;;1.10;1.00;;;;;;;;;;5068821;28;20200;-77
2022/07/10 14:35:38;;;;;;;2.83;1.30;;;;;;;;;;5048195;28;20211;-77
2022/07/10 14:38:05;;;;;;;2.20;1.27;;;;;;;;;;5067289;28;20248;-78
2022/07/10 14:40:34;;;;;;;3.92;1.30;;;;;;;;;;5060811;28;20622;-78
2022/07/10 14:43:01;;;;;;;2.33;1.20;;;;;;;;;;5069256;28;20284;-78
2022/07/10 14:45:28;;;;;;;1.83;1.10;;;;;;;;;;5068639;28;20219;-78
2022/07/10 14:47:57;;;;;;;1.27;1.17;;;;;;;;;;5069313;28;20199;-78
2022/07/10 14:50:25;;;;;;;1.58;1.17;;;;;;;;;;5065804;28;20316;-78
2022/07/10 14:52:52;;;;;;;1.27;1.10;;;;;;;;;;5064756;28;20230;-78
2022/07/10 14:55:19;;;;;;;1.90;1.13;;;;;;;;;;5065076;28;20207;-78
2022/07/10 14:57:49;;;;;;;1.52;1.20;;;;;;;;;;5070975;28;20282;-78
2022/07/10 15:00:18;;;;;;;2.22;1.33;;;;;;;;;;5072388;28;20196;-78
2022/07/10 15:02:45;;;;;;;1.30;1.20;;;;;;;;;;5069581;28;20207;-78
2022/07/10 15:05:13;;;;;;;1.15;1.05;;;;;;;;;;5072110;28;20654;-78